THY10 KLAX-LTFM
Flight info
| Callsign | THY10 |
|---|---|
| Flight time | N/A |
| Altitude | 31000 |
| Route | ORCKA5 LAS Q70 BLIPP Q842 WINEN DCT CKW/N0491F330 DCT DDY DCT DIK Q945 SEGAP DCT KAIIN DCT 55N091W 58N080W DCT TUNNI/N0497F350 DCT JELCO DCT GRIBS/M084F350 DCT LIBOR DCT 63N050W 64N040W 64N030W 64N020W 63N010W DCT GUNPA/N0489F370 DCT LANTI DCT NEDIK DCT SUBIX L867 PEKOT L616 DESEN DCT BILNA DCT BALAP DCT TEGRI DCT XANEX L606 GASRU T390 RILEX |
| Aircraft | B77W/H-SDE1E2E3FGHIJ2J3J4J5M1RWXY/LB1D1 |
Departure
| Time | 2026-04-20 05:55 |
|---|---|
| Airport | Los Angeles International Airport (KLAX) |
Arrival
| Time | N/A |
|---|---|
| Airport | İstanbul Airport (LTFM) |
| Time | Latitude | Longitude | Altitude | Speed | Heading |
|---|---|---|---|---|---|
| 2026-04-20 05:17 | 33.94262 | -118.41107 | 97 ft | 0 kts | 83° |
| 2026-04-20 05:43 | 33.94260 | -118.41128 | 97 ft | 4 kts | 83° |
| 2026-04-20 05:43 | 33.94257 | -118.41160 | 97 ft | 4 kts | 83° |
| 2026-04-20 05:43 | 33.94255 | -118.41186 | 96 ft | 4 kts | 92° |
| 2026-04-20 05:43 | 33.94262 | -118.41213 | 96 ft | 4 kts | 143° |
| 2026-04-20 05:44 | 33.94284 | -118.41223 | 96 ft | 4 kts | 173° |
| 2026-04-20 05:44 | 33.94311 | -118.41228 | 96 ft | 3 kts | 173° |
| 2026-04-20 05:44 | 33.94316 | -118.41228 | 97 ft | 0 kts | 173° |
| 2026-04-20 05:47 | 33.94309 | -118.41227 | 96 ft | 3 kts | 173° |
| 2026-04-20 05:47 | 33.94269 | -118.41221 | 96 ft | 9 kts | 173° |
| 2026-04-20 05:47 | 33.94195 | -118.41210 | 98 ft | 11 kts | 173° |
| 2026-04-20 05:48 | 33.94117 | -118.41198 | 99 ft | 11 kts | 173° |
| 2026-04-20 05:48 | 33.94039 | -118.41186 | 98 ft | 11 kts | 173° |
| 2026-04-20 05:48 | 33.93961 | -118.41174 | 98 ft | 11 kts | 173° |
| 2026-04-20 05:48 | 33.93882 | -118.41161 | 100 ft | 11 kts | 173° |
| 2026-04-20 05:49 | 33.93829 | -118.41154 | 100 ft | 11 kts | 173° |
| 2026-04-20 05:49 | 33.93770 | -118.41078 | 101 ft | 12 kts | 89° |
| 2026-04-20 05:49 | 33.93777 | -118.40983 | 98 ft | 12 kts | 83° |
| 2026-04-20 05:49 | 33.93789 | -118.40873 | 98 ft | 14 kts | 83° |
| 2026-04-20 05:50 | 33.93802 | -118.40749 | 100 ft | 15 kts | 83° |
| 2026-04-20 05:50 | 33.93815 | -118.40624 | 99 ft | 15 kts | 83° |
| 2026-04-20 05:50 | 33.93829 | -118.40498 | 100 ft | 16 kts | 83° |
| 2026-04-20 05:50 | 33.93846 | -118.40339 | 101 ft | 23 kts | 83° |
| 2026-04-20 05:51 | 33.93863 | -118.40152 | 103 ft | 23 kts | 83° |
| 2026-04-20 05:51 | 33.93882 | -118.39965 | 101 ft | 23 kts | 83° |
| 2026-04-20 05:51 | 33.93901 | -118.39773 | 102 ft | 23 kts | 83° |
| 2026-04-20 05:51 | 33.93919 | -118.39584 | 100 ft | 23 kts | 83° |
| 2026-04-20 05:52 | 33.93940 | -118.39395 | 102 ft | 23 kts | 82° |
| 2026-04-20 05:52 | 33.93960 | -118.39210 | 99 ft | 23 kts | 82° |
| 2026-04-20 05:52 | 33.93973 | -118.39085 | 99 ft | 23 kts | 82° |
| 2026-04-20 05:52 | 33.93992 | -118.38893 | 99 ft | 23 kts | 83° |
| 2026-04-20 05:53 | 33.94009 | -118.38703 | 101 ft | 23 kts | 83° |
| 2026-04-20 05:53 | 33.94030 | -118.38515 | 100 ft | 23 kts | 83° |
| 2026-04-20 05:53 | 33.94054 | -118.38278 | 103 ft | 20 kts | 83° |
| 2026-04-20 05:53 | 33.94070 | -118.38126 | 100 ft | 17 kts | 83° |
| 2026-04-20 05:54 | 33.94072 | -118.38031 | 98 ft | 10 kts | 115° |
| 2026-04-20 05:54 | 33.94032 | -118.38003 | 99 ft | 10 kts | 169° |
| 2026-04-20 05:54 | 33.93982 | -118.38052 | 99 ft | 10 kts | 251° |
| 2026-04-20 05:54 | 33.93971 | -118.38150 | 99 ft | 19 kts | 263° |
| 2026-04-20 05:55 | 33.93929 | -118.38561 | 105 ft | 88 kts | 263° |
| 2026-04-20 05:55 | 33.93820 | -118.39612 | 103 ft | 162 kts | 263° |
| 2026-04-20 05:55 | 33.93669 | -118.41148 | 364 ft | 193 kts | 263° |
| 2026-04-20 05:55 | 33.93522 | -118.42770 | 1027 ft | 199 kts | 263° |
| 2026-04-20 05:56 | 33.93360 | -118.44447 | 1708 ft | 204 kts | 263° |
| 2026-04-20 05:56 | 33.93123 | -118.46144 | 2128 ft | 214 kts | 252° |
| 2026-04-20 05:56 | 33.92343 | -118.47690 | 2330 ft | 224 kts | 226° |
| 2026-04-20 05:56 | 33.91285 | -118.49100 | 2779 ft | 230 kts | 228° |
| 2026-04-20 05:57 | 33.90196 | -118.50551 | 3244 ft | 238 kts | 225° |
| 2026-04-20 05:57 | 33.89058 | -118.52061 | 3716 ft | 249 kts | 226° |
| 2026-04-20 05:57 | 33.87904 | -118.53646 | 4212 ft | 260 kts | 227° |
| 2026-04-20 05:57 | 33.86644 | -118.55223 | 4763 ft | 263 kts | 212° |
| 2026-04-20 05:58 | 33.84948 | -118.55981 | 5343 ft | 262 kts | 181° |
| 2026-04-20 05:58 | 33.83156 | -118.55757 | 6005 ft | 261 kts | 167° |
| 2026-04-20 05:58 | 33.81368 | -118.55265 | 6622 ft | 266 kts | 167° |
| 2026-04-20 05:58 | 33.79561 | -118.54763 | 7331 ft | 267 kts | 167° |
| 2026-04-20 05:59 | 33.77749 | -118.54262 | 8026 ft | 268 kts | 167° |
| 2026-04-20 05:59 | 33.75925 | -118.53763 | 8702 ft | 270 kts | 168° |
| 2026-04-20 05:59 | 33.74107 | -118.53270 | 9339 ft | 273 kts | 168° |
| 2026-04-20 05:59 | 33.72245 | -118.52766 | 9997 ft | 275 kts | 167° |
| 2026-04-20 06:00 | 33.70462 | -118.51888 | 10353 ft | 287 kts | 144° |
| 2026-04-20 06:00 | 33.69114 | -118.50007 | 10493 ft | 312 kts | 118° |
| 2026-04-20 06:00 | 33.68325 | -118.47500 | 10646 ft | 331 kts | 111° |
| 2026-04-20 06:00 | 33.67542 | -118.44798 | 10806 ft | 353 kts | 112° |
| 2026-04-20 06:01 | 33.66710 | -118.41949 | 11127 ft | 369 kts | 112° |
| 2026-04-20 06:01 | 33.65845 | -118.39009 | 11663 ft | 378 kts | 112° |
| 2026-04-20 06:01 | 33.64971 | -118.36055 | 12324 ft | 382 kts | 111° |
| 2026-04-20 06:01 | 33.64313 | -118.32980 | 12859 ft | 387 kts | 97° |
| 2026-04-20 06:02 | 33.64353 | -118.29716 | 13298 ft | 396 kts | 89° |
| 2026-04-20 06:02 | 33.64455 | -118.26400 | 13939 ft | 399 kts | 91° |
| 2026-04-20 06:02 | 33.64479 | -118.23058 | 14622 ft | 400 kts | 91° |
| 2026-04-20 06:02 | 33.64819 | -118.19739 | 15055 ft | 409 kts | 73° |
| 2026-04-20 06:03 | 33.66178 | -118.16712 | 15561 ft | 419 kts | 52° |
| 2026-04-20 06:03 | 33.68302 | -118.14324 | 16215 ft | 419 kts | 37° |
| 2026-04-20 06:03 | 33.70674 | -118.12241 | 16764 ft | 425 kts | 36° |
| 2026-04-20 06:03 | 33.73079 | -118.10150 | 17375 ft | 429 kts | 36° |
| 2026-04-20 06:04 | 33.75465 | -118.08063 | 18011 ft | 431 kts | 36° |
| 2026-04-20 06:04 | 33.77891 | -118.05920 | 18624 ft | 434 kts | 36° |
| 2026-04-20 06:04 | 33.80318 | -118.03755 | 19235 ft | 436 kts | 36° |